createdAt,value
2022-09-17T00:02:15.668Z,100008.41
2022-09-17T00:05:17.763Z,100000.22
2022-09-17T00:08:19.763Z,100004.38
2022-09-17T00:11:33.802Z,99990.94
2022-09-17T00:14:36.017Z,99990.38
2022-09-17T00:17:38.564Z,99980.75
2022-09-17T00:20:42.599Z,99982.41
2022-09-17T00:23:44.986Z,99977.53
2022-09-17T00:26:48.089Z,99985.47
2022-09-17T00:29:50.062Z,99978.03
2022-09-17T00:32:53.322Z,99979.09
2022-09-17T00:36:00.571Z,99982.06
2022-09-17T00:39:07.667Z,99975.94
2022-09-17T00:42:12.635Z,99973.47
2022-09-17T00:45:14.800Z,99987.03
2022-09-17T00:48:16.996Z,99986.56
2022-09-17T00:51:25.793Z,99952.19
2022-09-17T00:54:28.585Z,99971.00
2022-09-17T00:57:31.625Z,99969.34
2022-09-17T01:00:33.754Z,99958.91
2022-09-17T01:03:36.136Z,99957.94
2022-09-17T01:06:55.559Z,99968.59
2022-09-17T01:10:12.727Z,99961.50
2022-09-17T01:13:35.230Z,99953.44
2022-09-17T01:16:39.885Z,99954.59
2022-09-17T01:20:05.109Z,99954.59
2022-09-17T01:23:37.959Z,99952.69
2022-09-17T01:27:09.531Z,99947.50
2022-09-17T01:30:22.750Z,99948.31
2022-09-17T01:33:43.683Z,99951.53
2022-09-17T01:36:51.270Z,99954.25
2022-09-17T01:40:11.606Z,99954.16
2022-09-17T01:43:24.121Z,99947.28
2022-09-17T01:47:04.470Z,99946.22
2022-09-17T01:50:52.624Z,99945.28
2022-09-17T01:54:05.705Z,99947.53
2022-09-17T01:57:29.127Z,99946.31
2022-09-17T02:00:31.868Z,99946.16
2022-09-17T02:03:46.792Z,99939.03
2022-09-17T02:06:57.602Z,99954.75
2022-09-17T02:10:07.158Z,99971.16
2022-09-17T02:13:26.471Z,99965.84
2022-09-17T02:16:32.890Z,99966.34
2022-09-17T02:19:39.829Z,99956.25
2022-09-17T02:22:52.778Z,99949.84
2022-09-17T02:26:10.392Z,99955.44
2022-09-17T02:29:26.582Z,99956.25
2022-09-17T02:32:28.560Z,99958.97
2022-09-17T02:35:32.203Z,99959.34
2022-09-17T02:38:34.251Z,99958.53
2022-09-17T02:41:52.300Z,99962.34
2022-09-17T02:45:12.665Z,99961.53
2022-09-17T02:48:42.664Z,99971.13
2022-09-17T02:51:53.955Z,99958.88
2022-09-17T02:55:14.038Z,99948.28
2022-09-17T02:58:22.010Z,99941.50
2022-09-17T03:01:31.213Z,99931.41
2022-09-17T03:04:35.120Z,99931.75
2022-09-17T03:07:37.908Z,99932.00
2022-09-17T03:10:40.619Z,99932.09
2022-09-17T03:13:42.655Z,99929.84
2022-09-17T03:16:44.665Z,99923.56
2022-09-17T03:19:46.672Z,99906.50
2022-09-17T03:22:48.637Z,99917.59
2022-09-17T03:25:50.646Z,99926.63
2022-09-17T03:28:52.715Z,99931.25
2022-09-17T03:31:54.642Z,99919.75
2022-09-17T03:34:56.701Z,99924.31
2022-09-17T03:37:58.677Z,99909.16
2022-09-17T03:41:03.205Z,99907.81
2022-09-17T03:44:05.373Z,99901.88
2022-09-17T03:47:07.645Z,99907.94
2022-09-17T03:50:09.929Z,99902.81
2022-09-17T03:53:12.053Z,99895.91
2022-09-17T03:56:14.694Z,99897.06
2022-09-17T03:59:16.685Z,99889.22
2022-09-17T04:02:18.701Z,99890.03
2022-09-17T04:05:20.782Z,99890.03
2022-09-17T04:08:23.163Z,99886.00
2022-09-17T04:11:25.119Z,99890.03
2022-09-17T04:14:27.120Z,99885.91
2022-09-17T04:17:29.226Z,99895.28
2022-09-17T04:20:31.308Z,99904.78
2022-09-17T04:23:33.296Z,99899.81
2022-09-17T04:26:35.257Z,99906.34
2022-09-17T04:29:37.220Z,99865.53
2022-09-17T04:32:39.111Z,99896.19
2022-09-17T04:35:41.512Z,99914.28
2022-09-17T04:38:43.525Z,99912.91
2022-09-17T04:41:45.853Z,99919.19
2022-09-17T04:44:47.826Z,99919.19
2022-09-17T04:47:51.103Z,99914.81
2022-09-17T04:50:52.993Z,99918.34
2022-09-17T04:53:55.112Z,99894.50
2022-09-17T04:56:57.131Z,99910.53
2022-09-17T04:59:59.067Z,99921.47
2022-09-17T05:03:01.452Z,99918.31
2022-09-17T05:06:03.545Z,99916.19
2022-09-17T05:09:05.496Z,99909.88
2022-09-17T05:12:07.675Z,99906.09
2022-09-17T05:15:09.931Z,99889.75
2022-09-17T05:18:11.906Z,99880.75
2022-09-17T05:21:14.415Z,99904.19
2022-09-17T05:24:16.358Z,99899.47
2022-09-17T05:27:18.611Z,99890.09
2022-09-17T05:30:20.683Z,99870.50
2022-09-17T05:33:23.436Z,99898.13
2022-09-17T05:36:25.655Z,99904.25
2022-09-17T05:39:29.292Z,99893.69
2022-09-17T05:42:31.389Z,99890.47
2022-09-17T05:45:34.962Z,99891.88
2022-09-17T05:48:37.028Z,99904.44
2022-09-17T05:51:40.236Z,99892.69
2022-09-17T05:54:42.318Z,99886.97
2022-09-17T05:57:44.374Z,99886.97
2022-09-17T06:00:48.922Z,99895.16
2022-09-17T06:03:51.074Z,99904.78
2022-09-17T06:06:53.041Z,99901.22
2022-09-17T06:09:55.166Z,99869.84
2022-09-17T06:13:00.394Z,99878.97
2022-09-17T06:16:03.482Z,99886.41
2022-09-17T06:19:05.664Z,99882.84
2022-09-17T06:22:07.969Z,99878.56
2022-09-17T06:25:10.237Z,99857.19
2022-09-17T06:28:12.148Z,99853.66
2022-09-17T06:31:14.586Z,99862.25
2022-09-17T06:34:17.732Z,99866.66
2022-09-17T06:37:19.944Z,99860.53
2022-09-17T06:40:23.791Z,99874.25
2022-09-17T06:43:26.613Z,99873.16
2022-09-17T06:46:28.864Z,99885.50
2022-09-17T06:49:31.493Z,99892.88
2022-09-17T06:52:33.469Z,99904.88
2022-09-17T06:55:35.381Z,99912.47
2022-09-17T06:58:38.602Z,99920.34
2022-09-17T07:01:40.575Z,99936.47
2022-09-17T07:04:42.549Z,99942.44
2022-09-17T07:07:44.506Z,99943.16
2022-09-17T07:10:46.466Z,99948.88
2022-09-17T07:13:48.349Z,99958.06
2022-09-17T07:16:50.397Z,99958.34
2022-09-17T07:19:52.337Z,99935.47
2022-09-17T07:23:00.187Z,99972.44
2022-09-17T07:26:14.828Z,99973.00
2022-09-17T07:29:16.722Z,99984.59
2022-09-17T07:32:18.695Z,99986.28
2022-09-17T07:35:20.745Z,99985.81
2022-09-17T07:38:23.370Z,99989.09
2022-09-17T07:41:25.297Z,99984.47
2022-09-17T07:44:28.684Z,99969.66
2022-09-17T07:47:30.857Z,99966.75
2022-09-17T07:50:33.503Z,99959.41
2022-09-17T07:53:35.472Z,99974.63
2022-09-17T07:56:37.652Z,99985.00
2022-09-17T07:59:39.757Z,99992.03
2022-09-17T08:02:41.769Z,99976.97
2022-09-17T08:05:44.002Z,99982.88
2022-09-17T08:08:46.587Z,99968.22
2022-09-17T08:11:56.845Z,99957.16
2022-09-17T08:14:58.938Z,99952.28
2022-09-17T08:18:00.971Z,99937.56
2022-09-17T08:21:05.323Z,99936.13
2022-09-17T08:24:07.501Z,99936.97
2022-09-17T08:27:09.502Z,99931.53
2022-09-17T08:30:11.869Z,99938.63
2022-09-17T08:33:14.283Z,99942.69
2022-09-17T08:36:18.863Z,99952.19
2022-09-17T08:39:20.957Z,99935.13
2022-09-17T08:42:51.917Z,99931.50
2022-09-17T08:45:55.711Z,99917.84
2022-09-17T08:49:22.067Z,99932.72
2022-09-17T08:52:48.126Z,99932.25
2022-09-17T08:56:11.359Z,99928.47
2022-09-17T08:59:45.538Z,99918.09
2022-09-17T09:03:18.855Z,99920.09
2022-09-17T09:06:25.586Z,99914.63
2022-09-17T09:09:35.642Z,99919.25
2022-09-17T09:12:39.133Z,99909.41
2022-09-17T09:15:49.145Z,99910.16
2022-09-17T09:18:55.491Z,99906.03
2022-09-17T09:22:21.267Z,99902.81
2022-09-17T09:25:23.686Z,99892.09
2022-09-17T09:28:37.498Z,99915.13
2022-09-17T09:31:58.689Z,99912.41
2022-09-17T09:35:12.687Z,99898.22
2022-09-17T09:38:27.843Z,99895.34
2022-09-17T09:41:43.785Z,99883.09
2022-09-17T09:44:46.143Z,99878.13
2022-09-17T09:47:57.252Z,99889.72
2022-09-17T09:52:04.867Z,99903.69
2022-09-17T09:55:42.529Z,99918.25
2022-09-17T09:58:44.610Z,99916.34
2022-09-17T10:01:47.265Z,99908.56
2022-09-17T10:04:53.406Z,99908.34
2022-09-17T10:07:56.083Z,99908.75
2022-09-17T10:11:07.380Z,99925.22
2022-09-17T10:14:36.537Z,99923.56
2022-09-17T10:17:38.533Z,99910.16
2022-09-17T10:20:50.746Z,99906.09
2022-09-17T10:23:53.046Z,99903.38
2022-09-17T10:27:03.075Z,99913.31
2022-09-17T10:30:07.958Z,99905.72
2022-09-17T10:33:23.780Z,99898.22
2022-09-17T10:36:47.694Z,99909.50
2022-09-17T10:39:50.034Z,99912.22
2022-09-17T10:43:11.898Z,99907.94
2022-09-17T10:46:27.929Z,99900.88
2022-09-17T10:49:33.085Z,99895.16
2022-09-17T10:52:42.533Z,99891.88
2022-09-17T10:56:06.109Z,99893.44
2022-09-17T10:59:21.297Z,99907.19
2022-09-17T11:02:41.815Z,99899.56
2022-09-17T11:06:04.095Z,99903.38
2022-09-17T11:09:18.172Z,99911.97
2022-09-17T11:12:36.428Z,99906.16
2022-09-17T11:15:52.164Z,99897.09
2022-09-17T11:19:19.009Z,99898.47
2022-09-17T11:22:50.175Z,99900.47
2022-09-17T11:26:06.150Z,99904.13
2022-09-17T11:29:55.416Z,99911.22
2022-09-17T11:33:25.416Z,99905.44
2022-09-17T11:37:04.290Z,99895.34
2022-09-17T11:40:20.048Z,99890.09
2022-09-17T11:43:28.012Z,99889.94
2022-09-17T11:46:38.090Z,99889.91
2022-09-17T11:49:49.236Z,99892.44
2022-09-17T11:53:17.979Z,99884.19
2022-09-17T11:56:29.666Z,99880.63
2022-09-17T12:00:02.320Z,99870.03
2022-09-17T12:03:21.304Z,99859.44
2022-09-17T12:06:44.645Z,99870.91
2022-09-17T12:09:53.893Z,99859.34
2022-09-17T12:13:03.489Z,99856.13
2022-09-17T12:16:27.956Z,99851.06
2022-09-17T12:19:46.994Z,99851.81
2022-09-17T12:22:50.182Z,99840.13
2022-09-17T12:26:06.901Z,99848.44
2022-09-17T12:29:11.795Z,99835.50
2022-09-17T12:32:35.792Z,99836.69
2022-09-17T12:36:03.678Z,99831.03
2022-09-17T12:39:09.523Z,99825.69
2022-09-17T12:42:29.253Z,99818.81
2022-09-17T12:45:31.461Z,99840.22
2022-09-17T12:48:33.557Z,99842.06
2022-09-17T12:51:45.022Z,99845.28
2022-09-17T12:55:11.604Z,99850.47
2022-09-17T12:58:36.864Z,99829.50
2022-09-17T13:01:52.426Z,99828.56
2022-09-17T13:05:19.090Z,99832.63
2022-09-17T13:08:26.933Z,99828.56
2022-09-17T13:11:55.627Z,99816.00
2022-09-17T13:15:24.073Z,99822.13
2022-09-17T13:19:17.743Z,99824.03
2022-09-17T13:22:22.630Z,99814.53
2022-09-17T13:25:26.270Z,99794.91
2022-09-17T13:28:44.586Z,99796.41
2022-09-17T13:31:50.096Z,99802.75
2022-09-17T13:34:52.167Z,99801.66
2022-09-17T13:37:54.006Z,99804.41
2022-09-17T13:41:20.876Z,99798.13
2022-09-17T13:44:23.862Z,99796.16
2022-09-17T13:47:51.164Z,99787.78
2022-09-17T13:50:53.697Z,99789.44
2022-09-17T13:53:58.125Z,99770.84
2022-09-17T13:57:09.136Z,99771.91
2022-09-17T14:01:00.236Z,99779.59
2022-09-17T14:04:03.202Z,99779.19
2022-09-17T14:07:32.322Z,99794.06
2022-09-17T14:10:41.096Z,99774.63
2022-09-17T14:13:44.982Z,99782.91
2022-09-17T14:16:50.563Z,99778.03
2022-09-17T14:19:55.595Z,99778.59
2022-09-17T14:22:59.567Z,99773.16
2022-09-17T14:26:05.296Z,99749.34
2022-09-17T14:29:19.686Z,99748.09
2022-09-17T14:32:34.300Z,99746.09
2022-09-17T14:35:36.676Z,99749.41
2022-09-17T14:38:44.855Z,99758.41
2022-09-17T14:41:47.629Z,99755.03
2022-09-17T14:45:02.425Z,99748.41
2022-09-17T14:48:31.953Z,99755.53
2022-09-17T14:51:39.262Z,99755.78
2022-09-17T14:54:44.745Z,99759.50
2022-09-17T14:57:52.074Z,99756.78
2022-09-17T15:00:54.309Z,99763.16
2022-09-17T15:04:14.300Z,99766.28
2022-09-17T15:07:16.185Z,99756.13
2022-09-17T15:10:21.387Z,99761.34
2022-09-17T15:13:30.883Z,99760.59
2022-09-17T15:16:35.160Z,99762.81
2022-09-17T15:19:45.112Z,99759.34
2022-09-17T15:22:54.836Z,99746.19
2022-09-17T15:25:59.715Z,99755.03
2022-09-17T15:29:05.670Z,99748.25
2022-09-17T15:32:12.234Z,99734.84
2022-09-17T15:35:14.514Z,99726.41
2022-09-17T15:38:23.746Z,99725.81
2022-09-17T15:41:32.333Z,99725.59
2022-09-17T15:44:34.399Z,99718.16
2022-09-17T15:48:01.344Z,99737.44
2022-09-17T15:51:07.111Z,99721.22
2022-09-17T15:54:30.470Z,99725.59
2022-09-17T15:57:33.253Z,99725.03
2022-09-17T16:00:35.325Z,99738.59
2022-09-17T16:03:40.699Z,99723.13
2022-09-17T16:07:08.588Z,99713.28
2022-09-17T16:10:12.012Z,99730.63
2022-09-17T16:13:14.145Z,99734.50
2022-09-17T16:16:18.472Z,99731.44
2022-09-17T16:19:20.691Z,99725.00
2022-09-17T16:22:23.406Z,99736.25
2022-09-17T16:25:28.083Z,99731.66
2022-09-17T16:28:30.762Z,99739.63
2022-09-17T16:31:34.320Z,99707.81
2022-09-17T16:34:36.632Z,99728.72
2022-09-17T16:37:38.596Z,99717.47
2022-09-17T16:40:42.834Z,99707.59
2022-09-17T16:43:44.825Z,99736.59
2022-09-17T16:46:46.820Z,99731.97
2022-09-17T16:49:48.903Z,99733.84
2022-09-17T16:52:50.907Z,99734.44
2022-09-17T16:55:53.805Z,99707.47
2022-09-17T16:58:56.860Z,99725.22
2022-09-17T17:01:58.980Z,99730.13
2022-09-17T17:05:00.991Z,99734.78
2022-09-17T17:08:06.640Z,99735.94
2022-09-17T17:11:08.820Z,99733.53
2022-09-17T17:14:14.631Z,99736.34
2022-09-17T17:17:18.389Z,99731.22
2022-09-17T17:20:20.699Z,99730.13
2022-09-17T17:23:22.664Z,99732.03
2022-09-17T17:26:24.687Z,99722.53
2022-09-17T17:29:28.010Z,99733.03
2022-09-17T17:32:30.042Z,99735.19
2022-09-17T17:35:32.080Z,99727.56
2022-09-17T17:38:34.135Z,99727.34
2022-09-17T17:41:36.187Z,99719.56
2022-09-17T17:44:38.294Z,99727.75
2022-09-17T17:47:40.321Z,99738.44
2022-09-17T17:50:42.310Z,99741.72
2022-09-17T17:53:45.125Z,99741.22
2022-09-17T17:56:47.203Z,99741.06
2022-09-17T17:59:49.228Z,99737.19
2022-09-17T18:02:51.595Z,99719.31
2022-09-17T18:05:56.615Z,99723.03
2022-09-17T18:08:58.665Z,99724.78
2022-09-17T18:12:00.691Z,99712.63
2022-09-17T18:15:04.095Z,99729.81
2022-09-17T18:18:06.638Z,99727.34
2022-09-17T18:21:10.876Z,99728.00
2022-09-17T18:24:12.927Z,99723.69
2022-09-17T18:27:15.469Z,99728.59
2022-09-17T18:30:17.803Z,99730.25
2022-09-17T18:33:25.175Z,99737.09
2022-09-17T18:36:29.626Z,99727.56
2022-09-17T18:42:53.637Z,99724.13
2022-09-17T18:45:56.894Z,99720.53
2022-09-17T18:49:00.181Z,99716.66
2022-09-17T18:52:02.531Z,99703.28
2022-09-17T18:55:04.964Z,99706.34
2022-09-17T18:58:06.909Z,99699.97
2022-09-17T19:01:09.364Z,99711.47
2022-09-17T19:04:11.547Z,99700.53
2022-09-17T19:07:13.449Z,99677.88
2022-09-17T19:10:15.586Z,99666.16
2022-09-17T19:13:18.110Z,99606.22
2022-09-17T19:16:20.382Z,99654.97
2022-09-17T19:19:22.502Z,99644.66
2022-09-17T19:22:24.484Z,99628.19
2022-09-17T19:25:28.170Z,99613.97
2022-09-17T19:28:30.250Z,99605.22
2022-09-17T19:31:32.470Z,99616.19
2022-09-17T19:34:34.684Z,99603.44
2022-09-17T19:37:36.694Z,99604.25
2022-09-17T19:40:39.512Z,99592.03
2022-09-17T19:43:42.235Z,99584.53
2022-09-17T19:46:44.280Z,99567.44
2022-09-17T19:49:48.877Z,99585.09
2022-09-17T19:52:50.967Z,99587.44
2022-09-17T19:55:52.994Z,99582.66
2022-09-17T19:58:55.314Z,99592.81
2022-09-17T20:01:57.457Z,99574.16
2022-09-17T20:04:59.608Z,99571.81
2022-09-17T20:08:03.313Z,99568.09
2022-09-17T20:11:06.648Z,99562.31
2022-09-17T20:14:10.942Z,99561.88
2022-09-17T20:17:13.384Z,99573.88
2022-09-17T20:20:15.517Z,99581.78
2022-09-17T20:23:17.535Z,99579.66
2022-09-17T20:26:19.770Z,99561.91
2022-09-17T20:29:21.750Z,99557.56
2022-09-17T20:32:23.769Z,99567.38
2022-09-17T20:35:25.797Z,99570.97
2022-09-17T20:41:50.880Z,99567.13
2022-09-17T20:44:53.031Z,99560.59
2022-09-17T20:47:56.303Z,99552.41
2022-09-17T20:51:04.156Z,99550.78
2022-09-17T20:54:07.639Z,99539.78
2022-09-17T20:57:09.806Z,99537.34
2022-09-17T21:00:19.750Z,99525.00
2022-09-17T21:03:23.152Z,99528.31
2022-09-17T21:06:34.381Z,99526.97
2022-09-17T21:09:41.899Z,99520.16
2022-09-17T21:12:43.842Z,99520.44
2022-09-17T21:15:59.719Z,99520.66
2022-09-17T21:19:04.619Z,99524.81
2022-09-17T21:22:06.695Z,99521.53
2022-09-17T21:25:09.142Z,99519.94
2022-09-17T21:28:11.105Z,99518.25
2022-09-17T21:31:16.198Z,99502.91
2022-09-17T21:34:18.442Z,99490.88
2022-09-17T21:37:20.535Z,99475.31
2022-09-17T21:40:23.176Z,99472.31
2022-09-17T21:43:26.283Z,99465.28
2022-09-17T21:46:33.128Z,99445.03
2022-09-17T21:49:35.142Z,99455.16
2022-09-17T21:52:37.143Z,99451.44
2022-09-17T21:55:39.117Z,99444.34
2022-09-17T21:58:42.762Z,99451.19
2022-09-17T22:01:50.527Z,99441.34
2022-09-17T22:04:52.718Z,99441.09
2022-09-17T22:07:54.731Z,99447.38
2022-09-17T22:11:11.219Z,99454.97
2022-09-17T22:14:15.663Z,99442.72
2022-09-17T22:17:18.263Z,99439.72
2022-09-17T22:20:21.623Z,99430.72
2022-09-17T22:23:24.043Z,99430.19
2022-09-17T22:26:29.654Z,99415.41
2022-09-17T22:29:32.209Z,99420.06
2022-09-17T22:32:34.128Z,99422.53
2022-09-17T22:35:36.254Z,99415.44
2022-09-17T22:38:38.894Z,99401.44
2022-09-17T22:41:45.885Z,99411.06
2022-09-17T22:44:48.283Z,99399.56
2022-09-17T22:47:50.321Z,99377.50
2022-09-17T22:50:52.967Z,99372.88
2022-09-17T22:53:55.899Z,99361.06
2022-09-17T22:56:58.063Z,99369.72
2022-09-17T23:00:00.354Z,99355.00
2022-09-17T23:03:02.513Z,99341.31
2022-09-17T23:06:08.343Z,99353.97
2022-09-17T23:09:12.586Z,99341.72
2022-09-17T23:12:14.972Z,99317.59
2022-09-17T23:15:17.265Z,99318.78
2022-09-17T23:18:19.584Z,99304.06
2022-09-17T23:21:22.314Z,99276.53
2022-09-17T23:24:24.715Z,99301.03
2022-09-17T23:27:26.875Z,99310.91
2022-09-17T23:30:29.150Z,99312.25
2022-09-17T23:33:31.322Z,99308.69
2022-09-17T23:36:36.488Z,99304.06
2022-09-17T23:39:38.636Z,99290.31
2022-09-17T23:42:40.959Z,99286.22
2022-09-17T23:45:43.036Z,99276.06
2022-09-17T23:48:46.264Z,99275.56
2022-09-17T23:51:48.532Z,99265.22
2022-09-17T23:54:53.307Z,99252.63
2022-09-17T23:57:57.600Z,99250.22
